Station: Braidwood

  Atmospheric Gas Attenuation - ITU Rec 676-11   --------------- db/100km ---------------
Date Time Temp RH % AH g/m3 Dew Point Wind Direction Speed kph Gust kph Barometer mB Rainfall Since 9am 24GHz 47GHz 76GHz 122GHz 134GHz 241GHz
22 13:10 19.7 58 9.85 11.2 15 19 1013.1 0 21.9 26.2 41.7 109.6 106.8 368.7
22 13:00 20.2 62 10.84 12.7 17 28 1022.8 0 24.0 27.9 45.8 120.3 119.8 414.1
22 12:50 19.5 60 10.07 11.5 13 17 1013.1 0 22.4 26.6 42.7 112.2 109.9 379.5
22 12:40 19.5 65 10.91 12.9 13 19 1013.1 0 24.2 27.9 46.0 121.1 120.9 417.8
22 12:30 20.1 65 11.3 13.3 15 22 1023.4 0 25.0 28.7 47.7 125.5 126.1 436.1
22 12:20 19.5 60 10.07 11.5 19 22 1013.1 0 22.4 26.6 42.7 112.2 109.9 379.5
22 12:10 19 63 10.27 11.8 11 15 1013.1 0 22.9 27.0 43.7 115.0 113.2 391.0
22 12:00 19 68 11.08 13 15 22 1023.7 0 24.6 28.8 47.5 124.9 125.0 432.0
22 11:50 19.2 68 11.21 13.1 15 20 1013.1 0 24.9 28.5 47.4 124.8 125.3 433.4
22 11:40 18.8 67 10.79 12.5 13 17 1013.1 0 24.0 27.9 45.9 120.8 120.4 416.0
22 11:30 19.2 63 10.39 12 15 24 1023.8 0 23.1 27.6 44.6 117.2 115.5 398.8
22 11:20 19.9 69 11.85 14 20 24 1013.1 0 26.2 29.3 49.6 130.7 132.8 459.6
22 11:10 20.1 65 11.3 13.3 13 17 1013.1 0 25.0 28.4 47.2 124.3 125.1 432.6
22 11:00 20 60 10.37 12 13 19 1024 0 23.0 27.3 44.1 115.8 114.1 394.0
22 10:50 18.4 61 9.59 10.7 11 15 1013.1 0 21.5 26.1 41.4 108.7 105.3 363.1
22 10:40 18.8 59 9.5 10.8 13 15 1013.1 0 21.3 25.9 40.8 107.2 103.6 357.3
22 10:30 19.2 57 9.4 10.5 6 15 1024.2 0 21.0 26.0 40.7 106.8 102.7 354.2
22 10:20 17.6 68 10.2 11.6 4 4 1013.1 0 22.8 27.3 44.2 116.3 114.4 394.8
22 10:10 17.9 68 10.38 11.9 13 15 1013.1 0 23.2 27.5 44.8 117.8 116.3 401.6
22 10:00 19 68 11.08 13 11 17 1024.3 0 24.6 28.8 47.5 125.0 125.0 432.2
22 09:50 18.2 70 10.88 12.6 11 15 1013.1 0 24.2 28.3 46.6 122.8 122.5 423.4
22 09:40 17.5 73 10.88 12.6 7 9 1013.1 0 24.3 28.5 47.1 123.9 123.6 427.2
22 09:30 17.1 75 10.92 12.6 4 13 1024.3 0 24.3 29.1 48.0 126.3 125.9 435.1
22 09:20 16.4 77 10.75 12.3 6 7 1013.1 0 24.0 28.6 47.2 124.2 123.6 427.1
22 09:10 16.7 78 11.08 12.8 13 15 1013.1 0 24.7 29.1 48.4 127.4 127.7 441.3
22 09:00 17.2 80 11.71 13.7 6 9 1024.4 0 26.0 30.5 51.3 135.0 136.8 473.0
22 08:50 16.3 80 11.1 12.8 4 6 1013.1 0 24.8 29.3 48.7 128.3 128.6 444.5
22 08:40 15.8 82 11.04 12.7 7 9 1013.1 0 24.7 29.3 48.8 128.4 128.6 444.5
22 08:30 15.9 80 10.83 12.5 7 13 1024.4 0 24.2 29.4 48.4 127.2 126.7 437.5
22 08:20 15.8 84 11.31 13.1 7 9 1013.1 0 25.3 29.8 49.9 131.5 132.4 457.7
22 08:10 15.4 84 11.04 12.7 7 7 1013.1 0 24.7 29.5 49.0 129.1 129.3 446.8
22 08:00 14.7 84 10.58 12 9 13 1024.4 0 23.8 29.4 48.0 126.3 125.1 432.0
22 07:50 14.6 87 10.89 12.4 9 9 1013.1 0 24.5 29.5 48.9 128.7 128.5 444.0
22 07:40 14.4 91 11.25 12.9 6 6 1013.1 0 25.2 30.2 50.6 133.2 134.0 463.1
22 07:30 13.9 92 11.03 12.6 4 6 1024.1 0 24.8 30.4 50.5 132.8 132.9 458.9
22 07:20 13.1 95 10.84 12.4 6 6 1013.1 0 24.4 29.9 49.6 130.6 130.4 450.2
22 07:10 12.4 97 10.6 11.9 7 7 1013.1 0 24.0 29.7 49.0 129.0 128.1 442.2
22 07:00 12.4 97 10.6 11.9 4 6 1023.9 0 23.9 30.2 49.6 130.3 129.2 445.9
22 06:50 12 98 10.45 11.7 4 6 1013.1 0 23.7 29.6 48.6 127.9 126.6 436.9
22 06:40 11.9 98 10.38 11.6 4 4 1013.1 0 23.5 29.5 48.3 127.2 125.8 433.9
22 06:30 11.7 98 10.25 11.4 4 6 1023.8 0 23.2 29.8 48.4 127.3 125.3 432.1
22 06:20 11.4 97 9.96 10.9 6 6 1013.1 0 22.6 28.9 46.8 123.1 120.5 415.6
22 06:10 11.6 98 10.19 11.3 6 6 1013.1 0 23.1 29.3 47.7 125.5 123.5 426.0
22 06:00 11.6 98 10.19 11.3 6 7 1023.8 0 23.1 29.7 48.2 126.8 124.6 429.6
22 05:50 11.7 98 10.25 11.4 4 4 1013.1 0 23.2 29.3 47.9 126.0 124.2 428.5
22 05:30 11.6 98 10.19 11.3 6 7 1023.6 0 23.1 29.7 48.2 126.8 124.6 429.5
22 05:20 11.7 98 10.25 11.4 6 6 1013.1 0 23.2 29.3 47.9 126.0 124.2 428.5
22 05:10 11.7 98 10.25 11.4 6 6 1013.1 0 23.2 29.3 47.9 126.0 124.2 428.5
22 05:00 11.7 98 10.25 11.4 0 0 1023.9 0 23.2 29.8 48.4 127.3 125.3 432.1
22 04:50 11.6 98 10.19 11.3 0 0 1013.1 0 23.1 29.3 47.7 125.5 123.5 426.0
22 04:40 11.4 98 10.06 11.1 0 0 1013.1 0 22.9 29.1 47.2 124.3 122.0 420.6
22 04:30 11.4 98 10.06 11.1 0 0 1023.8 0 22.8 29.5 47.8 125.6 123.0 424.1
22 04:20 11.1 98 9.87 10.8 0 0 1013.1 0 22.5 28.9 46.6 122.6 119.7 412.7
22 04:10 11.1 98 9.87 10.8 0 0 1013.1 0 22.5 28.9 46.6 122.6 119.7 412.7
22 04:00 11 98 9.81 10.7 2 4 1024.1 0 22.3 29.2 46.9 123.3 120.1 413.8
22 03:50 10.9 98 9.75 10.6 0 2 1013.1 0 22.2 28.7 46.2 121.5 118.3 407.7
22 03:40 10.7 98 9.63 10.4 0 0 1013.1 0 22.0 28.6 45.8 120.4 116.9 402.8
22 03:30 10.3 98 9.39 10 0 0 1024.3 0 21.5 28.7 45.5 119.5 115.1 396.3
22 03:20 10.2 97 9.23 9.7 0 0 1013.1 0 21.1 28.0 44.3 116.5 111.9 385.4
22 03:10 9.8 96 8.91 9.2 0 0 1013.1 0 20.5 27.6 43.2 113.5 108.0 371.5
22 03:00 9.7 96 8.85 9.1 0 0 1024.7 0 20.3 28.0 43.5 114.2 108.3 372.4
22 02:50 9.9 96 8.97 9.3 0 0 1013.1 0 20.6 27.7 43.4 114.0 108.7 374.0
22 02:40 10.8 98 9.69 10.5 0 0 1013.1 0 22.1 28.7 46.0 120.9 117.6 405.2
22 02:30 10.7 98 9.63 10.4 0 0 1025 0 21.9 29.1 46.4 121.8 118.0 406.6
22 02:20 10.6 97 9.47 10.1 0 0 1013.1 0 21.6 28.3 45.1 118.7 114.8 395.3
22 02:10 10.5 97 9.41 10 0 0 1013.1 0 21.5 28.3 44.9 118.2 114.1 392.8
22 02:00 11 97 9.71 10.5 0 0 1025.4 0 22.1 29.1 46.6 122.3 118.7 409.1
22 01:50 10.5 96 9.31 9.9 0 0 1013.1 0 21.3 28.1 44.5 117.0 112.6 387.8
22 01:40 10.4 96 9.25 9.8 0 0 1013.1 0 21.2 28.0 44.3 116.5 111.9 385.4
22 01:30 10.4 95 9.16 9.6 0 0 1025.5 0 20.9 28.4 44.5 116.8 111.8 384.7
22 01:20 10.9 95 9.45 10.1 0 0 1013.1 0 21.6 28.2 44.9 118.0 114.0 392.8
22 01:10 11 93 9.31 10 0 0 1013.1 0 21.3 27.9 44.2 116.3 111.9 385.3
22 01:00 11.3 96 9.79 10.7 0 0 1025.9 0 22.3 29.2 46.8 122.8 119.5 411.7
22 00:50 11.6 95 9.88 10.9 0 0 1013.1 0 22.5 28.7 46.3 121.9 119.1 410.5
22 00:40 11.9 97 10.27 11.4 0 0 1013.1 0 23.3 29.3 47.9 125.9 124.2 428.4
22 00:30 12.2 98 10.58 11.9 0 0 1026.2 0 23.9 30.3 49.7 130.7 129.5 446.8
22 00:20 12.3 98 10.64 12 0 0 1013.1 0 24.1 29.8 49.2 129.6 128.9 444.8
22 00:10 12 98 10.45 11.7 0 0 1013.1 0 23.7 29.6 48.6 127.9 126.6 436.9
22 00:00 11.7 98 10.25 11.4 0 0 1026.4 0 23.2 29.9 48.6 127.6 125.5 433.0
21 23:50 11 95 9.51 10.3 0 0 1013.1 0 21.7 28.3 45.1 118.5 114.7 395.2
21 23:40 10.9 95 9.45 10.2 4 6 1013.1 0 21.6 28.2 44.9 118.0 114.0 392.8
21 23:30 10.4 94 9.06 9.5 7 7 1026.6 0 20.7 28.2 44.1 115.8 110.5 380.1
21 23:20 10.8 93 9.19 9.8 6 6 1013.1 0 21.0 27.8 43.8 115.2 110.5 380.4
21 23:10 11.4 94 9.65 10.4 4 6 1013.1 0 22.0 28.4 45.5 119.5 116.1 400.1
21 23:00 12 95 10.13 11.2 4 4 1026.8 0 22.9 29.6 47.9 125.8 123.3 425.3
21 22:50 12.2 95 10.25 11.4 4 4 1013.1 0 23.2 29.2 47.6 125.2 123.4 425.7
21 22:40 12.4 95 10.38 11.7 6 6 1013.1 0 23.5 29.3 48.0 126.4 124.9 431.1
21 22:30 12.3 95 10.32 11.5 4 4 1027.1 0 23.3 29.8 48.5 127.5 125.6 433.4
21 22:20 12.3 95 10.32 11.5 4 6 1013.1 0 23.4 29.3 47.8 125.9 124.2 428.7
21 22:10 12.6 95 10.51 11.8 6 6 1013.1 0 23.8 29.5 48.5 127.6 126.5 436.5
21 22:00 12.6 95 10.51 11.8 7 9 1027.1 0 23.7 30.1 49.2 129.3 127.9 441.3
21 21:50 12.9 95 10.71 12.1 7 9 1013.1 0 24.2 29.7 49.2 129.4 128.9 444.8
21 21:40 13.1 95 10.84 12.3 7 7 1013.1 0 24.4 29.9 49.6 130.6 130.4 450.2
21 21:30 13.2 95 10.91 12.4 6 7 1027.3 0 24.6 30.6 50.6 133.0 132.7 458.2
21 21:20 13.3 95 10.98 12.6 7 7 1013.1 0 24.7 30.1 50.1 131.9 132.1 456.1
21 21:10 13.1 95 10.84 12.3 9 11 1013.1 0 24.4 29.9 49.6 130.6 130.4 450.2
21 21:00 13 95 10.77 12.2 9 13 1027 0 24.3 30.4 50.1 131.7 131.0 452.1
21 20:50 12.9 94 10.6 11.9 9 11 1013.1 0 23.9 29.5 48.7 128.2 127.3 439.3
21 20:40 12.9 92 10.37 11.6 7 7 1013.1 0 23.4 29.1 47.7 125.5 124.0 427.8
21 20:30 13.5 92 10.76 12.2 9 13 1026.8 0 24.2 30.2 49.7 130.7 129.9 448.6

Last Refresh: 22-Jan-2022 12:49:25

Bureau of Meteorology